PWSweather.com
Personal Weather Stations
Station Observations
01979
Ravne Pri CerknemSI 5282

Ravne Pri CerknemSI 5282

Lat: 46.1213916, Lon: 13.952774299999987

Elevation: 2244.094488

Station Type: Techo Line WS2307

Latest ConditionsUpdated 9:00:27 PM GMT+01:01 Monday, Feb 19, 2018
Currently Today's Max Today's Min Today's Average
Temperature 25.0°F-3.9°C 28.2°F-2.1°C 24.8°F-4.0°C 26.8°F-2.9°C
Dew Point 21.4°F-5.9°C 24.7°F-4.1°C 21.2°F-6.0°C 23.0°F-5.0°C
Winds 0.5 mph N0.8 kmh N 9.5 mph ENE15.3 kmh ENE - 2.6 mph 4.2 kmh
Wind Gusts 2.2 mph3.5 kmh 17.7 mph28.5 kmh - -
Humidity 86% 92% 79% 86%
Pressure 30.00 in1015.9 mb 30.22 in1023.4 mb 30.00 in1015.9 mb -
Hour Temp Dew Point Humidity Winds Wind Gusts Pressure Precip Precip Rate Daily Precip Total
09:00 PM 25.0°F-3.9°C 21.4°F-5.9°C 86% 0.5 mph N0.8 kmh N 2.2 mph3.5 kmh 30.00 in1015.9 mb 0.00 in0.0 mm 0.00 in0.0 mm 0.00 in0.0 mm
08:50 PM 25.0°F-3.9°C 21.4°F-5.9°C 86% 1.2 mph W1.9 kmh W 6.7 mph10.8 kmh 30.00 in1015.9 mb 0.00 in0.0 mm 0.00 in0.0 mm 0.00 in0.0 mm
08:40 PM 24.8°F-4.0°C 21.2°F-6.0°C 86% 2.6 mph N4.2 kmh N 6.7 mph10.8 kmh 30.00 in1015.9 mb 0.00 in0.0 mm 0.00 in0.0 mm 0.00 in0.0 mm
08:30 PM 24.8°F-4.0°C 21.2°F-6.0°C 86% 1.6 mph N2.6 kmh N 3.1 mph5.0 kmh 30.01 in1016.3 mb 0.00 in0.0 mm 0.00 in0.0 mm 0.00 in0.0 mm
08:20 PM 25.0°F-3.9°C 21.4°F-5.9°C 86% 2.9 mph N4.7 kmh N 5.6 mph9.0 kmh 30.01 in1016.3 mb 0.00 in0.0 mm 0.00 in0.0 mm 0.00 in0.0 mm
08:10 PM 25.0°F-3.9°C 21.4°F-5.9°C 86% 2.5 mph NE4.0 kmh NE 5.6 mph9.0 kmh 30.01 in1016.3 mb 0.00 in0.0 mm 0.00 in0.0 mm 0.00 in0.0 mm
08:00 PM 25.0°F-3.9°C 21.7°F-5.7°C 87% 4.1 mph NW6.6 kmh NW 12.8 mph20.6 kmh 30.01 in1016.3 mb 0.00 in0.0 mm 0.00 in0.0 mm 0.00 in0.0 mm
07:50 PM 25.2°F-3.8°C 21.8°F-5.7°C 87% 7.5 mph NE12.1 kmh NE 12.8 mph20.6 kmh 30.01 in1016.3 mb 0.00 in0.0 mm 0.00 in0.0 mm 0.00 in0.0 mm
07:40 PM 25.2°F-3.8°C 21.6°F-5.8°C 86% 1.2 mph WNW1.9 kmh WNW 4.3 mph6.9 kmh 30.01 in1016.3 mb 0.00 in0.0 mm 0.00 in0.0 mm 0.00 in0.0 mm
07:30 PM 25.2°F-3.8°C 21.6°F-5.8°C 86% 2.2 mph NW3.5 kmh NW 4.3 mph6.9 kmh 30.02 in1016.6 mb 0.00 in0.0 mm 0.00 in0.0 mm 0.00 in0.0 mm
07:20 PM 25.2°F-3.8°C 21.8°F-5.7°C 87% 1.1 mph NNE1.8 kmh NNE 3.4 mph5.5 kmh 30.02 in1016.6 mb 0.00 in0.0 mm 0.00 in0.0 mm 0.00 in0.0 mm
07:10 PM 25.0°F-3.9°C 21.7°F-5.7°C 87% Calm Calm -- 30.02 in1016.6 mb 0.00 in0.0 mm 0.00 in0.0 mm 0.00 in0.0 mm
07:00 PM 25.0°F-3.9°C 21.7°F-5.7°C 87% 2.6 mph NE4.2 kmh NE 5.8 mph9.3 kmh 30.02 in1016.6 mb 0.00 in0.0 mm 0.00 in0.0 mm 0.00 in0.0 mm
06:50 PM 25.2°F-3.8°C 21.8°F-5.7°C 87% 6.3 mph E10.1 kmh E 12.1 mph19.5 kmh 30.02 in1016.6 mb 0.00 in0.0 mm 0.00 in0.0 mm 0.00 in0.0 mm
06:40 PM 25.3°F-3.7°C 22.0°F-5.6°C 87% 6.9 mph E11.1 kmh E 10.1 mph16.3 kmh 30.03 in1016.9 mb 0.00 in0.0 mm 0.00 in0.0 mm 0.00 in0.0 mm
06:30 PM 25.3°F-3.7°C 21.7°F-5.7°C 86% 4.5 mph E7.2 kmh E 11.0 mph17.7 kmh 30.02 in1016.6 mb 0.00 in0.0 mm 0.00 in0.0 mm 0.00 in0.0 mm
06:20 PM 25.5°F-3.6°C 21.6°F-5.8°C 85% 4.3 mph ENE6.9 kmh ENE 6.7 mph10.8 kmh 30.03 in1016.9 mb 0.00 in0.0 mm 0.00 in0.0 mm 0.00 in0.0 mm
06:10 PM 26.1°F-3.3°C 22.2°F-5.4°C 85% 4.0 mph E6.4 kmh E 8.3 mph13.4 kmh 30.02 in1016.6 mb 0.00 in0.0 mm 0.00 in0.0 mm 0.00 in0.0 mm
06:00 PM 26.2°F-3.2°C 22.3°F-5.4°C 85% 4.4 mph ESE7.1 kmh ESE 7.6 mph12.2 kmh 30.03 in1016.9 mb 0.00 in0.0 mm 0.00 in0.0 mm 0.00 in0.0 mm
05:50 PM 26.2°F-3.2°C 22.1°F-5.5°C 84% 3.5 mph E5.6 kmh E 8.3 mph13.4 kmh 30.03 in1016.9 mb 0.00 in0.0 mm 0.00 in0.0 mm 0.00 in0.0 mm
05:40 PM 26.2°F-3.2°C 22.1°F-5.5°C 84% 0.6 mph E1.0 kmh E 5.1 mph8.2 kmh 30.03 in1016.9 mb 0.00 in0.0 mm 0.00 in0.0 mm 0.00 in0.0 mm
05:30 PM 26.4°F-3.1°C 22.0°F-5.6°C 83% 2.3 mph E3.7 kmh E 5.1 mph8.2 kmh 30.03 in1016.9 mb 0.00 in0.0 mm 0.00 in0.0 mm 0.00 in0.0 mm
05:20 PM 26.6°F-3.0°C 22.1°F-5.5°C 83% 2.4 mph ENE3.9 kmh ENE 7.4 mph11.9 kmh 30.03 in1016.9 mb 0.00 in0.0 mm 0.00 in0.0 mm 0.00 in0.0 mm
05:10 PM 26.8°F-2.9°C 22.3°F-5.4°C 83% 2.8 mph E4.5 kmh E 7.2 mph11.6 kmh 30.03 in1016.9 mb 0.00 in0.0 mm 0.00 in0.0 mm 0.00 in0.0 mm
05:00 PM 26.8°F-2.9°C 22.3°F-5.4°C 83% 5.7 mph E9.2 kmh E 11.6 mph18.7 kmh 30.04 in1017.3 mb 0.00 in0.0 mm 0.00 in0.0 mm 0.00 in0.0 mm
04:50 PM 27.1°F-2.7°C 22.7°F-5.2°C 83% 2.6 mph N4.2 kmh N 9.6 mph15.4 kmh 30.04 in1017.3 mb 0.00 in0.0 mm 0.00 in0.0 mm 0.00 in0.0 mm
04:40 PM 27.1°F-2.7°C 22.4°F-5.3°C 82% 5.4 mph ESE8.7 kmh ESE 9.6 mph15.4 kmh 30.04 in1017.3 mb 0.00 in0.0 mm 0.00 in0.0 mm 0.00 in0.0 mm
04:30 PM 27.1°F-2.7°C 22.4°F-5.3°C 82% 3.3 mph SE5.3 kmh SE 6.9 mph11.1 kmh 30.04 in1017.3 mb 0.00 in0.0 mm 0.00 in0.0 mm 0.00 in0.0 mm
04:20 PM 27.3°F-2.6°C 22.5°F-5.3°C 82% 3.1 mph ENE5.0 kmh ENE 8.3 mph13.4 kmh 30.05 in1017.6 mb 0.00 in0.0 mm 0.00 in0.0 mm 0.00 in0.0 mm
04:10 PM 27.7°F-2.4°C 22.9°F-5.1°C 82% 0.4 mph WNW0.6 kmh WNW 1.8 mph2.9 kmh 30.05 in1017.6 mb 0.00 in0.0 mm 0.00 in0.0 mm 0.00 in0.0 mm
04:00 PM 27.7°F-2.4°C 22.9°F-5.1°C 82% 1.2 mph NE1.9 kmh NE 4.9 mph7.9 kmh 30.05 in1017.6 mb 0.00 in0.0 mm 0.00 in0.0 mm 0.00 in0.0 mm
03:50 PM 27.7°F-2.4°C 22.9°F-5.1°C 82% 3.2 mph WNW5.1 kmh WNW 6.5 mph10.5 kmh 30.05 in1017.6 mb 0.00 in0.0 mm 0.00 in0.0 mm 0.00 in0.0 mm
03:40 PM 27.5°F-2.5°C 22.7°F-5.2°C 82% 0.8 mph W1.3 kmh W 1.1 mph1.8 kmh 30.06 in1017.9 mb 0.00 in0.0 mm 0.00 in0.0 mm 0.00 in0.0 mm
03:30 PM 27.5°F-2.5°C 22.7°F-5.2°C 82% 1.0 mph ENE1.6 kmh ENE 6.3 mph10.1 kmh 30.06 in1017.9 mb 0.00 in0.0 mm 0.00 in0.0 mm 0.00 in0.0 mm
03:20 PM 27.1°F-2.7°C 22.4°F-5.3°C 82% 3.0 mph ENE4.8 kmh ENE 6.3 mph10.1 kmh 30.06 in1017.9 mb 0.00 in0.0 mm 0.00 in0.0 mm 0.00 in0.0 mm
03:10 PM 27.3°F-2.6°C 22.5°F-5.3°C 82% 2.7 mph NE4.3 kmh NE 9.4 mph15.1 kmh 30.06 in1017.9 mb 0.00 in0.0 mm 0.00 in0.0 mm 0.00 in0.0 mm
03:00 PM 27.1°F-2.7°C 22.4°F-5.3°C 82% 4.3 mph ENE6.9 kmh ENE 9.8 mph15.8 kmh 30.06 in1017.9 mb 0.00 in0.0 mm 0.00 in0.0 mm 0.00 in0.0 mm
02:50 PM 27.3°F-2.6°C 22.3°F-5.4°C 81% 1.3 mph ESE2.1 kmh ESE 9.8 mph15.8 kmh 30.06 in1017.9 mb 0.00 in0.0 mm 0.00 in0.0 mm 0.00 in0.0 mm
02:40 PM 27.7°F-2.4°C 22.3°F-5.4°C 80% 6.5 mph NE10.5 kmh NE 10.1 mph16.3 kmh 30.07 in1018.3 mb 0.00 in0.0 mm 0.00 in0.0 mm 0.00 in0.0 mm
02:30 PM 28.0°F-2.2°C 22.4°F-5.3°C 79% 3.0 mph ENE4.8 kmh ENE 10.1 mph16.3 kmh 30.07 in1018.3 mb 0.00 in0.0 mm 0.00 in0.0 mm 0.00 in0.0 mm
02:20 PM 28.0°F-2.2°C 22.4°F-5.3°C 79% 4.9 mph E7.9 kmh E 11.4 mph18.3 kmh 30.07 in1018.3 mb 0.00 in0.0 mm 0.00 in0.0 mm 0.00 in0.0 mm
02:10 PM 27.7°F-2.4°C 22.3°F-5.4°C 80% 4.7 mph ENE7.6 kmh ENE 9.8 mph15.8 kmh 30.08 in1018.6 mb 0.00 in0.0 mm 0.00 in0.0 mm 0.00 in0.0 mm
02:00 PM 27.5°F-2.5°C 22.1°F-5.5°C 80% 5.4 mph E8.7 kmh E 11.2 mph18.0 kmh 30.08 in1018.6 mb 0.00 in0.0 mm 0.00 in0.0 mm 0.00 in0.0 mm
01:50 PM 27.5°F-2.5°C 22.1°F-5.5°C 80% 5.5 mph ENE8.9 kmh ENE 9.4 mph15.1 kmh 30.08 in1018.6 mb 0.00 in0.0 mm 0.00 in0.0 mm 0.00 in0.0 mm
01:40 PM 27.7°F-2.4°C 22.0°F-5.6°C 79% 1.5 mph ESE2.4 kmh ESE 3.6 mph5.8 kmh 30.08 in1018.6 mb 0.00 in0.0 mm 0.00 in0.0 mm 0.00 in0.0 mm
01:30 PM 27.7°F-2.4°C 22.0°F-5.6°C 79% 3.2 mph ENE5.1 kmh ENE 6.3 mph10.1 kmh 30.09 in1019.0 mb 0.00 in0.0 mm 0.00 in0.0 mm 0.00 in0.0 mm
01:20 PM 27.3°F-2.6°C 22.0°F-5.6°C 80% 2.4 mph E3.9 kmh E 6.0 mph9.7 kmh 30.10 in1019.3 mb 0.00 in0.0 mm 0.00 in0.0 mm 0.00 in0.0 mm
01:10 PM 27.7°F-2.4°C 22.3°F-5.4°C 80% 3.6 mph ENE5.8 kmh ENE 16.6 mph26.7 kmh 30.10 in1019.3 mb 0.00 in0.0 mm 0.00 in0.0 mm 0.00 in0.0 mm
01:00 PM 27.7°F-2.4°C 22.3°F-5.4°C 80% 2.9 mph SW4.7 kmh SW 8.1 mph13.0 kmh 30.10 in1019.3 mb 0.00 in0.0 mm 0.00 in0.0 mm 0.00 in0.0 mm
12:50 PM 27.5°F-2.5°C 22.1°F-5.5°C 80% 5.6 mph ENE9.0 kmh ENE 12.5 mph20.1 kmh 30.11 in1019.6 mb 0.00 in0.0 mm 0.00 in0.0 mm 0.00 in0.0 mm
12:40 PM 27.5°F-2.5°C 22.4°F-5.3°C 81% 2.4 mph ENE3.9 kmh ENE 4.9 mph7.9 kmh 30.11 in1019.6 mb 0.00 in0.0 mm 0.00 in0.0 mm 0.00 in0.0 mm
12:30 PM 27.7°F-2.4°C 22.3°F-5.4°C 80% 3.1 mph W5.0 kmh W 6.7 mph10.8 kmh 30.12 in1020.0 mb 0.00 in0.0 mm 0.00 in0.0 mm 0.00 in0.0 mm
12:20 PM 27.7°F-2.4°C 22.6°F-5.2°C 81% Calm Calm -- 30.12 in1020.0 mb 0.00 in0.0 mm 0.00 in0.0 mm 0.00 in0.0 mm
12:10 PM 27.7°F-2.4°C 22.0°F-5.6°C 79% 0.3 mph SSW0.5 kmh SSW 1.6 mph2.6 kmh 30.13 in1020.3 mb 0.00 in0.0 mm 0.00 in0.0 mm 0.00 in0.0 mm
12:00 PM 27.5°F-2.5°C 21.8°F-5.7°C 79% 5.1 mph ESE8.2 kmh ESE 8.9 mph14.3 kmh 30.12 in1020.0 mb 0.00 in0.0 mm 0.00 in0.0 mm 0.00 in0.0 mm
11:50 AM 27.1°F-2.7°C 22.1°F-5.5°C 81% 3.3 mph E5.3 kmh E 7.8 mph12.6 kmh 30.13 in1020.3 mb 0.00 in0.0 mm 0.00 in0.0 mm 0.00 in0.0 mm
11:40 AM 27.3°F-2.6°C 22.3°F-5.4°C 81% 5.5 mph NE8.9 kmh NE 12.3 mph19.8 kmh 30.13 in1020.3 mb 0.00 in0.0 mm 0.00 in0.0 mm 0.00 in0.0 mm
11:30 AM 27.3°F-2.6°C 22.3°F-5.4°C 81% 1.2 mph NE1.9 kmh NE 8.9 mph14.3 kmh 30.13 in1020.3 mb 0.00 in0.0 mm 0.00 in0.0 mm 0.00 in0.0 mm
11:20 AM 27.1°F-2.7°C 22.4°F-5.3°C 82% 4.6 mph NNW7.4 kmh NNW 9.2 mph14.8 kmh 30.13 in1020.3 mb 0.00 in0.0 mm 0.00 in0.0 mm 0.00 in0.0 mm
11:10 AM 26.8°F-2.9°C 22.3°F-5.4°C 83% 4.6 mph NW7.4 kmh NW 9.4 mph15.1 kmh 30.13 in1020.3 mb 0.00 in0.0 mm 0.00 in0.0 mm 0.00 in0.0 mm
11:00 AM 27.0°F-2.8°C 22.5°F-5.3°C 83% 1.7 mph W2.7 kmh W 5.4 mph8.7 kmh 30.14 in1020.7 mb 0.00 in0.0 mm 0.00 in0.0 mm 0.00 in0.0 mm
10:50 AM 27.0°F-2.8°C 22.2°F-5.4°C 82% 2.9 mph NW4.7 kmh NW 11.0 mph17.7 kmh 30.13 in1020.3 mb 0.00 in0.0 mm 0.00 in0.0 mm 0.00 in0.0 mm
10:40 AM 27.7°F-2.4°C 22.9°F-5.1°C 82% 1.5 mph SW2.4 kmh SW 3.6 mph5.8 kmh 30.14 in1020.7 mb 0.00 in0.0 mm 0.00 in0.0 mm 0.00 in0.0 mm
10:30 AM 28.0°F-2.2°C 23.0°F-5.0°C 81% 3.9 mph ENE6.3 kmh ENE 6.9 mph11.1 kmh 30.14 in1020.7 mb 0.00 in0.0 mm 0.00 in0.0 mm 0.00 in0.0 mm
10:20 AM 28.0°F-2.2°C 23.3°F-4.8°C 82% 2.7 mph ESE4.3 kmh ESE 6.9 mph11.1 kmh 30.14 in1020.7 mb 0.00 in0.0 mm 0.00 in0.0 mm 0.00 in0.0 mm
10:10 AM 28.0°F-2.2°C 23.5°F-4.7°C 83% 2.5 mph E4.0 kmh E 11.6 mph18.7 kmh 30.14 in1020.7 mb 0.00 in0.0 mm 0.00 in0.0 mm 0.00 in0.0 mm
10:00 AM 27.5°F-2.5°C 23.3°F-4.8°C 84% 7.1 mph E11.4 kmh E 13.9 mph22.4 kmh 30.14 in1020.7 mb 0.00 in0.0 mm 0.00 in0.0 mm 0.00 in0.0 mm
09:50 AM 27.1°F-2.7°C 23.2°F-4.9°C 85% 0.4 mph NW0.6 kmh NW 6.3 mph10.1 kmh 30.14 in1020.7 mb 0.00 in0.0 mm 0.00 in0.0 mm 0.00 in0.0 mm
09:40 AM 27.1°F-2.7°C 23.8°F-4.6°C 87% 4.7 mph NNE7.6 kmh NNE 10.5 mph16.9 kmh 30.14 in1020.7 mb 0.00 in0.0 mm 0.00 in0.0 mm 0.00 in0.0 mm
09:30 AM 27.1°F-2.7°C 24.1°F-4.4°C 88% 4.6 mph E7.4 kmh E 8.7 mph14.0 kmh 30.15 in1021.0 mb 0.00 in0.0 mm 0.00 in0.0 mm 0.00 in0.0 mm
09:20 AM 26.6°F-3.0°C 24.3°F-4.3°C 91% 1.3 mph E2.1 kmh E 7.8 mph12.6 kmh 30.15 in1021.0 mb 0.00 in0.0 mm 0.00 in0.0 mm 0.00 in0.0 mm
09:10 AM 26.4°F-3.1°C 24.4°F-4.2°C 92% 2.6 mph ESE4.2 kmh ESE 7.8 mph12.6 kmh 30.15 in1021.0 mb 0.00 in0.0 mm 0.00 in0.0 mm 0.00 in0.0 mm
09:00 AM 25.7°F-3.5°C 23.7°F-4.6°C 92% 3.0 mph ESE4.8 kmh ESE 6.5 mph10.5 kmh 30.15 in1021.0 mb 0.00 in0.0 mm 0.00 in0.0 mm 0.00 in0.0 mm
08:50 AM 25.7°F-3.5°C 23.7°F-4.6°C 92% 3.1 mph N5.0 kmh N 6.9 mph11.1 kmh 30.15 in1021.0 mb 0.00 in0.0 mm 0.00 in0.0 mm 0.00 in0.0 mm
08:40 AM 25.9°F-3.4°C 23.6°F-4.7°C 91% 1.8 mph NE2.9 kmh NE 4.7 mph7.6 kmh 30.15 in1021.0 mb 0.00 in0.0 mm 0.00 in0.0 mm 0.00 in0.0 mm
08:30 AM 25.7°F-3.5°C 23.4°F-4.8°C 91% 2.3 mph WNW3.7 kmh WNW 6.7 mph10.8 kmh 30.15 in1021.0 mb 0.00 in0.0 mm 0.00 in0.0 mm 0.00 in0.0 mm
08:20 AM 25.7°F-3.5°C 23.4°F-4.8°C 91% 3.0 mph NW4.8 kmh NW 6.7 mph10.8 kmh 30.15 in1021.0 mb 0.00 in0.0 mm 0.00 in0.0 mm 0.00 in0.0 mm
08:10 AM 25.5°F-3.6°C 23.0°F-5.0°C 90% 2.8 mph ENE4.5 kmh ENE 6.7 mph10.8 kmh 30.15 in1021.0 mb 0.00 in0.0 mm 0.00 in0.0 mm 0.00 in0.0 mm
08:00 AM 25.7°F-3.5°C 23.2°F-4.9°C 90% 0.8 mph NNE1.3 kmh NNE 4.3 mph6.9 kmh 30.15 in1021.0 mb 0.00 in0.0 mm 0.00 in0.0 mm 0.00 in0.0 mm
07:50 AM 25.9°F-3.4°C 23.4°F-4.8°C 90% 4.2 mph N6.8 kmh N 6.9 mph11.1 kmh 30.15 in1021.0 mb 0.00 in0.0 mm 0.00 in0.0 mm 0.00 in0.0 mm
07:40 AM 26.2°F-3.2°C 23.4°F-4.8°C 89% 2.3 mph NNW3.7 kmh NNW 9.6 mph15.4 kmh 30.15 in1021.0 mb 0.00 in0.0 mm 0.00 in0.0 mm 0.00 in0.0 mm
07:30 AM 26.2°F-3.2°C 23.2°F-4.9°C 88% 1.0 mph N1.6 kmh N 4.5 mph7.2 kmh 30.15 in1021.0 mb 0.00 in0.0 mm 0.00 in0.0 mm 0.00 in0.0 mm
07:20 AM 26.4°F-3.1°C 23.3°F-4.8°C 88% 2.7 mph SSW4.3 kmh SSW 6.5 mph10.5 kmh 30.15 in1021.0 mb 0.00 in0.0 mm 0.00 in0.0 mm 0.00 in0.0 mm
07:10 AM 26.4°F-3.1°C 23.3°F-4.8°C 88% 2.7 mph NNW4.3 kmh NNW 7.8 mph12.6 kmh 30.15 in1021.0 mb 0.00 in0.0 mm 0.00 in0.0 mm 0.00 in0.0 mm
07:00 AM 26.4°F-3.1°C 23.6°F-4.7°C 89% 1.9 mph N3.1 kmh N 3.6 mph5.8 kmh 30.14 in1020.7 mb 0.00 in0.0 mm 0.00 in0.0 mm 0.00 in0.0 mm
06:50 AM 26.6°F-3.0°C 23.8°F-4.6°C 89% 0.4 mph ENE0.6 kmh ENE 2.0 mph3.2 kmh 30.14 in1020.7 mb 0.00 in0.0 mm 0.00 in0.0 mm 0.00 in0.0 mm
06:40 AM 26.4°F-3.1°C 23.6°F-4.7°C 89% Calm Calm -- 30.15 in1021.0 mb 0.00 in0.0 mm 0.00 in0.0 mm 0.00 in0.0 mm
06:30 AM 26.6°F-3.0°C 23.8°F-4.6°C 89% Calm Calm -- 30.14 in1020.7 mb 0.00 in0.0 mm 0.00 in0.0 mm 0.00 in0.0 mm
06:20 AM 26.6°F-3.0°C 23.8°F-4.6°C 89% 2.0 mph ENE3.2 kmh ENE 5.6 mph9.0 kmh 30.14 in1020.7 mb 0.00 in0.0 mm 0.00 in0.0 mm 0.00 in0.0 mm
06:10 AM 26.8°F-2.9°C 24.0°F-4.4°C 89% 3.6 mph NE5.8 kmh NE 5.6 mph9.0 kmh 30.14 in1020.7 mb 0.00 in0.0 mm 0.00 in0.0 mm 0.00 in0.0 mm
06:00 AM 26.8°F-2.9°C 24.0°F-4.4°C 89% 1.1 mph E1.8 kmh E 5.1 mph8.2 kmh 30.14 in1020.7 mb 0.00 in0.0 mm 0.00 in0.0 mm 0.00 in0.0 mm
05:50 AM 26.8°F-2.9°C 24.0°F-4.4°C 89% Calm Calm -- 30.14 in1020.7 mb 0.00 in0.0 mm 0.00 in0.0 mm 0.00 in0.0 mm
05:40 AM 26.8°F-2.9°C 24.0°F-4.4°C 89% Calm Calm -- 30.14 in1020.7 mb 0.00 in0.0 mm 0.00 in0.0 mm 0.00 in0.0 mm
05:30 AM 26.8°F-2.9°C 24.0°F-4.4°C 89% Calm Calm -- 30.15 in1021.0 mb 0.00 in0.0 mm 0.00 in0.0 mm 0.00 in0.0 mm
05:20 AM 26.8°F-2.9°C 24.2°F-4.3°C 90% Calm Calm -- 30.15 in1021.0 mb 0.00 in0.0 mm 0.00 in0.0 mm 0.00 in0.0 mm
05:10 AM 26.4°F-3.1°C 23.9°F-4.5°C 90% Calm Calm -- 30.16 in1021.3 mb 0.00 in0.0 mm 0.00 in0.0 mm 0.00 in0.0 mm
05:00 AM 26.4°F-3.1°C 23.9°F-4.5°C 90% 0.2 mph E0.3 kmh E 1.1 mph1.8 kmh 30.16 in1021.3 mb 0.00 in0.0 mm 0.00 in0.0 mm 0.00 in0.0 mm
04:50 AM 26.4°F-3.1°C 23.9°F-4.5°C 90% 0.5 mph E0.8 kmh E 1.6 mph2.6 kmh 30.16 in1021.3 mb 0.00 in0.0 mm 0.00 in0.0 mm 0.00 in0.0 mm
04:40 AM 26.4°F-3.1°C 23.9°F-4.5°C 90% 1.3 mph E2.1 kmh E 6.0 mph9.7 kmh 30.16 in1021.3 mb 0.00 in0.0 mm 0.00 in0.0 mm 0.00 in0.0 mm
04:30 AM 26.4°F-3.1°C 23.9°F-4.5°C 90% 3.2 mph ESE5.1 kmh ESE 7.6 mph12.2 kmh 30.16 in1021.3 mb 0.00 in0.0 mm 0.00 in0.0 mm 0.00 in0.0 mm
04:20 AM 26.4°F-3.1°C 23.9°F-4.5°C 90% 1.6 mph E2.6 kmh E 2.7 mph4.3 kmh 30.16 in1021.3 mb 0.00 in0.0 mm 0.00 in0.0 mm 0.00 in0.0 mm
04:10 AM 26.4°F-3.1°C 23.9°F-4.5°C 90% 1.3 mph NE2.1 kmh NE 2.7 mph4.3 kmh 30.16 in1021.3 mb 0.00 in0.0 mm 0.00 in0.0 mm 0.00 in0.0 mm
04:00 AM 26.6°F-3.0°C 24.1°F-4.4°C 90% 4.4 mph ESE7.1 kmh ESE 10.5 mph16.9 kmh 30.16 in1021.3 mb 0.00 in0.0 mm 0.00 in0.0 mm 0.00 in0.0 mm
03:50 AM 26.6°F-3.0°C 24.1°F-4.4°C 90% 2.3 mph N3.7 kmh N 7.4 mph11.9 kmh 30.16 in1021.3 mb 0.00 in0.0 mm 0.00 in0.0 mm 0.00 in0.0 mm
03:40 AM 26.6°F-3.0°C 23.8°F-4.6°C 89% 0.5 mph E0.8 kmh E 2.9 mph4.7 kmh 30.16 in1021.3 mb 0.00 in0.0 mm 0.00 in0.0 mm 0.00 in0.0 mm
03:30 AM 26.6°F-3.0°C 23.8°F-4.6°C 89% 1.2 mph E1.9 kmh E 5.8 mph9.3 kmh 30.16 in1021.3 mb 0.00 in0.0 mm 0.00 in0.0 mm 0.00 in0.0 mm
03:20 AM 26.8°F-2.9°C 23.7°F-4.6°C 88% 3.2 mph E5.1 kmh E 8.3 mph13.4 kmh 30.17 in1021.7 mb 0.00 in0.0 mm 0.00 in0.0 mm 0.00 in0.0 mm
03:10 AM 27.0°F-2.8°C 23.9°F-4.5°C 88% 4.2 mph E6.8 kmh E 8.9 mph14.3 kmh 30.17 in1021.7 mb 0.00 in0.0 mm 0.00 in0.0 mm 0.00 in0.0 mm
03:00 AM 27.1°F-2.7°C 23.8°F-4.6°C 87% 1.5 mph ENE2.4 kmh ENE 4.9 mph7.9 kmh 30.17 in1021.7 mb 0.00 in0.0 mm 0.00 in0.0 mm 0.00 in0.0 mm
02:50 AM 27.3°F-2.6°C 24.0°F-4.4°C 87% 0.9 mph ESE1.4 kmh ESE 3.4 mph5.5 kmh 30.17 in1021.7 mb 0.00 in0.0 mm 0.00 in0.0 mm 0.00 in0.0 mm
02:40 AM 27.3°F-2.6°C 24.0°F-4.4°C 87% 0.6 mph ENE1.0 kmh ENE 2.7 mph4.3 kmh 30.17 in1021.7 mb 0.00 in0.0 mm 0.00 in0.0 mm 0.00 in0.0 mm
02:30 AM 27.3°F-2.6°C 24.0°F-4.4°C 87% 2.7 mph E4.3 kmh E 6.7 mph10.8 kmh 30.17 in1021.7 mb 0.00 in0.0 mm 0.00 in0.0 mm 0.00 in0.0 mm
02:20 AM 27.3°F-2.6°C 24.0°F-4.4°C 87% Calm Calm -- 30.18 in1022.0 mb 0.00 in0.0 mm 0.00 in0.0 mm 0.00 in0.0 mm
02:10 AM 27.3°F-2.6°C 24.2°F-4.3°C 88% 6.5 mph ESE10.5 kmh ESE 17.7 mph28.5 kmh 30.18 in1022.0 mb 0.00 in0.0 mm 0.00 in0.0 mm 0.00 in0.0 mm
02:02 AM 27.3°F-2.6°C 24.2°F-4.3°C 88% 7.2 mph E11.6 kmh E 17.7 mph28.5 kmh 30.20 in1022.7 mb 0.00 in0.0 mm 0.00 in0.0 mm 0.00 in0.0 mm
02:00 AM 27.3°F-2.6°C 24.2°F-4.3°C 88% 1.3 mph ESE2.1 kmh ESE 7.8 mph12.6 kmh 30.18 in1022.0 mb 0.00 in0.0 mm 0.00 in0.0 mm 0.00 in0.0 mm
01:50 AM 27.3°F-2.6°C 24.2°F-4.3°C 88% 3.7 mph E6.0 kmh E 13.0 mph20.9 kmh 30.19 in1022.4 mb 0.00 in0.0 mm 0.00 in0.0 mm 0.00 in0.0 mm
01:40 AM 27.3°F-2.6°C 24.2°F-4.3°C 88% 9.5 mph ENE15.3 kmh ENE 17.7 mph28.5 kmh 30.20 in1022.7 mb 0.00 in0.0 mm 0.00 in0.0 mm 0.00 in0.0 mm
01:30 AM 27.5°F-2.5°C 24.4°F-4.2°C 88% 0.8 mph NE1.3 kmh NE 8.9 mph14.3 kmh 30.20 in1022.7 mb 0.00 in0.0 mm 0.00 in0.0 mm 0.00 in0.0 mm
01:20 AM 27.3°F-2.6°C 24.2°F-4.3°C 88% 1.1 mph E1.8 kmh E 4.7 mph7.6 kmh 30.20 in1022.7 mb 0.00 in0.0 mm 0.00 in0.0 mm 0.00 in0.0 mm
01:10 AM 27.5°F-2.5°C 24.4°F-4.2°C 88% 0.3 mph ENE0.5 kmh ENE 1.3 mph2.1 kmh 30.20 in1022.7 mb 0.00 in0.0 mm 0.00 in0.0 mm 0.00 in0.0 mm
01:00 AM 27.7°F-2.4°C 24.6°F-4.1°C 88% 2.2 mph E3.5 kmh E 6.9 mph11.1 kmh 30.20 in1022.7 mb 0.00 in0.0 mm 0.00 in0.0 mm 0.00 in0.0 mm
12:50 AM 27.7°F-2.4°C 24.6°F-4.1°C 88% 0.8 mph ENE1.3 kmh ENE 6.9 mph11.1 kmh 30.20 in1022.7 mb 0.00 in0.0 mm 0.00 in0.0 mm 0.00 in0.0 mm
12:40 AM 27.7°F-2.4°C 24.3°F-4.3°C 87% Calm Calm -- 30.20 in1022.7 mb 0.00 in0.0 mm 0.00 in0.0 mm 0.00 in0.0 mm
12:30 AM 28.0°F-2.2°C 24.7°F-4.1°C 87% 1.6 mph E2.6 kmh E 8.1 mph13.0 kmh 30.21 in1023.0 mb 0.00 in0.0 mm 0.00 in0.0 mm 0.00 in0.0 mm
12:20 AM 28.0°F-2.2°C 24.7°F-4.1°C 87% 2.0 mph SE3.2 kmh SE 10.1 mph16.3 kmh 30.21 in1023.0 mb 0.00 in0.0 mm 0.00 in0.0 mm 0.00 in0.0 mm
12:10 AM 28.0°F-2.2°C 24.4°F-4.2°C 86% 2.1 mph SE3.4 kmh SE 10.1 mph16.3 kmh 30.21 in1023.0 mb 0.00 in0.0 mm 0.00 in0.0 mm 0.00 in0.0 mm
12:00 AM 28.2°F-2.1°C 24.6°F-4.1°C 86% Calm Calm -- 30.22 in1023.4 mb 0.00 in0.0 mm 0.00 in0.0 mm 0.00 in0.0 mm